Time;durP1;ratioP1;P1;durP2;ratioP2;P2;SDS_P1;SDS_P2;PMS_P1;PMS_P2;Temp;Humidity;BMP_temperature;BMP_pressure;BME280_temperature;BME280_humidity;BME280_pressure;Samples;Min_cycle;Max_cycle;Signal;HPM_P1;HPM_P2
2022/12/13 00:01:31;;;;;;;10.98;6.00;;;;;;;-3.17;100.00;98305.47;4468217;32;20185;-77
2022/12/13 00:04:01;;;;;;;12.05;5.45;;;;;;;-3.17;100.00;98305.47;4465665;32;83473;-76
2022/12/13 00:06:29;;;;;;;11.60;5.30;;;;;;;-3.26;100.00;98305.84;4468414;32;20154;-77
2022/12/13 00:08:57;;;;;;;13.13;6.03;;;;;;;-3.25;100.00;98308.34;4474592;32;20603;-77
2022/12/13 00:11:24;;;;;;;15.30;5.57;;;;;;;-3.35;100.00;98304.47;4483435;32;20120;-77
2022/12/13 00:13:51;;;;;;;13.27;6.00;;;;;;;-3.32;100.00;98306.09;4483793;31;20096;-77
2022/12/13 00:16:23;;;;;;;16.12;6.15;;;;;;;-3.31;100.00;98318.03;4482474;32;20168;-77
2022/12/13 00:18:54;;;;;;;15.57;6.90;;;;;;;-3.47;100.00;98305.81;4483628;32;20135;-77
2022/12/13 00:21:24;;;;;;;14.30;5.05;;;;;;;-3.46;100.00;98312.59;4475029;31;20104;-78
2022/12/13 00:23:52;;;;;;;13.18;5.60;;;;;;;-3.46;100.00;98309.22;4468106;32;20415;-77
2022/12/13 00:26:30;;;;;;;14.32;6.37;;;;;;;-3.45;100.00;98306.59;4469801;32;20560;-77
2022/12/13 00:28:59;;;;;;;14.20;6.28;;;;;;;-3.50;100.00;98308.50;4470227;32;20085;-77
2022/12/13 00:31:30;;;;;;;12.43;6.20;;;;;;;-3.58;100.00;98305.41;4469955;32;20108;-77
2022/12/13 00:34:18;;;;;;;12.30;5.75;;;;;;;-3.51;100.00;98306.84;4470086;32;20419;-77
2022/12/13 00:36:45;;;;;;;13.77;5.60;;;;;;;-3.59;100.00;98304.59;4470004;32;20104;-77
2022/12/13 00:39:15;;;;;;;12.32;6.40;;;;;;;-3.56;100.00;98313.84;4469958;32;20587;-77
2022/12/13 00:41:43;;;;;;;17.92;7.03;;;;;;;-3.63;100.00;98312.44;4470040;32;20430;-77
2022/12/13 00:44:11;;;;;;;16.70;6.28;;;;;;;-3.65;100.00;98312.50;4470225;32;20425;-77
2022/12/13 00:46:39;;;;;;;16.45;5.47;;;;;;;-3.62;100.00;98314.09;4470015;32;20092;-77
2022/12/13 00:49:08;;;;;;;17.15;7.32;;;;;;;-3.71;100.00;98319.56;4470031;32;20100;-77
2022/12/13 00:51:36;;;;;;;15.30;6.60;;;;;;;-3.74;100.00;98325.63;4470128;32;20093;-77
2022/12/13 00:54:04;;;;;;;18.00;8.30;;;;;;;-3.77;100.00;98321.50;4470027;32;20115;-77
2022/12/13 00:56:32;;;;;;;17.25;7.25;;;;;;;-3.77;100.00;98321.50;4470309;32;20152;-77
2022/12/13 00:58:59;;;;;;;19.92;7.72;;;;;;;-3.73;100.00;98319.63;4469897;32;20138;-77
2022/12/13 01:01:30;;;;;;;15.20;6.12;;;;;;;-3.71;100.00;98324.69;4469896;32;20101;-77
2022/12/13 01:04:00;;;;;;;15.30;6.15;;;;;;;-3.81;100.00;98326.78;4470389;32;20144;-77
2022/12/13 01:06:35;;;;;;;18.17;7.35;;;;;;;-3.65;100.00;98329.56;4469820;32;20096;-77
2022/12/13 01:09:05;;;;;;;14.30;5.97;;;;;;;-3.71;100.00;98332.37;4477026;32;20151;-77
2022/12/13 01:11:32;;;;;;;13.62;6.50;;;;;;;-3.78;100.00;98329.22;4485221;31;20145;-77
2022/12/13 01:14:00;;;;;;;16.05;6.45;;;;;;;-3.77;100.00;98331.72;4485600;31;20118;-77
2022/12/13 01:16:27;;;;;;;18.00;7.53;;;;;;;-3.77;100.00;98336.00;4485661;31;20163;-77
2022/12/13 01:18:56;;;;;;;17.20;6.82;;;;;;;-3.75;100.00;98335.06;4485472;31;20111;-77
2022/12/13 01:21:23;;;;;;;16.77;7.12;;;;;;;-3.80;100.00;98343.78;4476609;31;20157;-77
2022/12/13 01:23:50;;;;;;;19.15;6.95;;;;;;;-3.77;100.00;98341.97;4469734;32;20493;-77
2022/12/13 01:26:19;;;;;;;17.67;6.62;;;;;;;-3.80;100.00;98352.31;4469848;32;20130;-77
2022/12/13 01:28:47;;;;;;;15.15;5.45;;;;;;;-3.75;100.00;98350.41;4469807;32;20513;-77
2022/12/13 01:31:17;;;;;;;16.12;6.72;;;;;;;-3.79;100.00;98353.16;4469643;32;20148;-77
2022/12/13 01:33:45;;;;;;;12.45;6.03;;;;;;;-3.77;100.00;98356.47;4469747;32;20100;-77
2022/12/13 01:36:14;;;;;;;15.50;6.80;;;;;;;-3.78;100.00;98353.09;4467857;32;20153;-77
2022/12/13 01:38:42;;;;;;;14.27;6.90;;;;;;;-3.89;100.00;98345.00;4469606;32;20161;-77
2022/12/13 01:41:17;;;;;;;19.48;8.35;;;;;;;-3.84;100.00;98355.88;4469792;32;20100;-77
2022/12/13 01:43:47;;;;;;;15.43;6.80;;;;;;;-3.84;100.00;98353.31;4469683;32;20600;-77
2022/12/13 01:46:16;;;;;;;12.32;6.03;;;;;;;-3.82;100.00;98348.13;4469765;32;20076;-76
2022/12/13 01:48:51;;;;;;;15.65;6.62;;;;;;;-3.83;100.00;98346.47;4469597;32;20105;-77
2022/12/13 01:51:31;;;;;;;13.98;6.25;;;;;;;-3.87;100.00;98353.44;4469767;32;20592;-76
2022/12/13 01:54:10;;;;;;;14.98;6.25;;;;;;;-3.83;100.00;98354.13;4469704;32;20084;-76
2022/12/13 01:56:50;;;;;;;9.98;5.07;;;;;;;-3.81;100.00;98350.62;4468394;32;20084;-76
2022/12/13 01:59:18;;;;;;;12.75;6.50;;;;;;;-3.80;100.00;98349.75;4469848;32;20498;-76
2022/12/13 02:01:48;;;;;;;12.88;5.15;;;;;;;-3.84;100.00;98361.00;4469417;32;20093;-76
2022/12/13 02:04:26;;;;;;;14.45;6.05;;;;;;;-3.82;100.00;98356.63;4468378;32;20159;-76
2022/12/13 02:06:55;;;;;;;18.40;6.53;;;;;;;-3.80;100.00;98362.56;4468556;32;20080;-76
2022/12/13 02:09:22;;;;;;;14.13;6.37;;;;;;;-3.84;100.00;98358.44;4477498;32;20164;-76
2022/12/13 02:11:50;;;;;;;15.32;6.25;;;;;;;-3.86;100.00;98355.09;4485125;31;20138;-77
2022/12/13 02:14:17;;;;;;;14.85;6.60;;;;;;;-3.85;100.00;98356.75;4485121;31;20088;-77
2022/12/13 02:17:09;;;;;;;17.12;6.75;;;;;;;-3.89;100.00;98351.81;4485120;32;20092;-76
2022/12/13 02:19:59;;;;;;;9.88;5.70;;;;;;;-3.87;100.00;98345.75;4485379;32;20077;-77
2022/12/13 02:23:02;;;;;;;18.55;6.87;;;;;;;-3.95;100.00;98347.78;4469463;32;20119;-77
2022/12/13 02:25:37;;;;;;;19.90;7.45;;;;;;;-4.01;100.00;98341.16;4469585;32;20134;-77
2022/12/13 02:28:05;;;;;;;17.02;6.65;;;;;;;-4.05;100.00;98347.28;4469526;32;20205;-77
2022/12/13 02:30:53;;;;;;;20.25;7.47;;;;;;;-4.09;100.00;98345.72;4469264;32;20081;-78
2022/12/13 02:33:39;;;;;;;13.18;6.43;;;;;;;-4.04;100.00;98343.84;4469254;32;20123;-77
2022/12/13 02:36:19;;;;;;;13.93;7.07;;;;;;;-4.15;100.00;98345.94;4467946;32;20782;-77
2022/12/13 02:39:16;;;;;;;16.48;6.35;;;;;;;-4.18;100.00;98344.34;4468173;32;20104;-77
2022/12/13 02:42:00;;;;;;;14.40;5.95;;;;;;;-4.23;100.00;98348.78;4468134;32;20153;-77
2022/12/13 02:44:34;;;;;;;19.77;8.15;;;;;;;-4.26;100.00;98350.62;4469295;32;20107;-77
2022/12/13 02:47:04;;;;;;;;;;;;;;;-4.27;100.00;98354.87;4469869;32;20110;-77
2022/12/13 02:49:42;;;;;;;15.00;6.22;;;;;;;-4.33;100.00;98358.50;4468322;32;20549;-77
2022/12/13 02:52:10;;;;;;;17.73;6.90;;;;;;;-4.34;100.00;98351.72;4467991;32;20111;-77
2022/12/13 02:54:40;;;;;;;22.02;8.60;;;;;;;-4.32;100.00;98351.66;4467910;32;20177;-77
2022/12/13 02:57:32;;;;;;;16.23;6.05;;;;;;;-4.31;100.00;98356.72;4469234;32;20132;-77
2022/12/13 03:00:25;;;;;;;15.32;6.37;;;;;;;-4.34;100.00;98351.72;4469122;32;20099;-77
2022/12/13 03:02:55;;;;;;;11.73;5.28;;;;;;;-4.46;100.00;98352.16;4468882;32;20167;-77
2022/12/13 03:08:38;;;;;;;17.15;6.35;;;;;;;-4.51;100.00;98359.97;4471104;32;20118;-77
2022/12/13 03:11:09;;;;;;;15.20;5.97;;;;;;;-4.59;100.00;98361.13;4419779;32;20148;-77
2022/12/13 03:14:01;;;;;;;17.92;7.97;;;;;;;-4.58;100.00;98355.13;4407545;32;20532;-77
2022/12/13 03:16:40;;;;;;;15.15;6.12;;;;;;;-4.54;100.00;98347.31;4420126;32;20476;-77
2022/12/13 03:19:09;;;;;;;19.62;6.90;;;;;;;-4.52;100.00;98353.19;4407567;32;20528;-77
2022/12/13 03:21:39;;;;;;;14.82;6.07;;;;;;;-4.48;100.00;98359.03;4397326;32;20121;-77
2022/12/13 03:24:16;;;;;;;14.32;7.18;;;;;;;-4.63;100.00;98360.41;4404704;32;20101;-77
2022/12/13 03:26:44;;;;;;;21.80;7.57;;;;;;;-4.60;100.00;98360.31;4404666;32;20121;-77
2022/12/13 03:29:11;;;;;;;13.02;5.85;;;;;;;-4.67;100.00;98358.84;4404756;32;20138;-77
2022/12/13 03:31:39;;;;;;;13.35;5.57;;;;;;;-4.59;100.00;98359.41;4404600;32;20137;-77
2022/12/13 03:34:06;;;;;;;20.17;7.18;;;;;;;-4.61;100.00;98358.62;4404837;32;20169;-77
2022/12/13 03:36:33;;;;;;;17.05;7.65;;;;;;;-4.61;100.00;98363.75;4404685;32;20118;-77
2022/12/13 03:39:00;;;;;;;25.45;7.68;;;;;;;-4.58;100.00;98376.41;4404393;32;20464;-77
2022/12/13 03:41:31;;;;;;;25.73;9.00;;;;;;;-4.59;100.00;98368.78;4404751;32;20485;-77
2022/12/13 03:43:59;;;;;;;19.90;8.05;;;;;;;-4.62;100.00;98371.47;4404336;32;20127;-77
2022/12/13 03:46:26;;;;;;;15.13;7.47;;;;;;;-4.60;100.00;98370.53;4404423;32;20792;-77
2022/12/13 03:48:54;;;;;;;19.50;7.07;;;;;;;-4.64;100.00;98368.97;4454122;32;20143;-77
2022/12/13 03:51:21;;;;;;;13.02;6.70;;;;;;;-4.74;100.00;98372.69;4468585;32;20173;-77
2022/12/13 03:53:48;;;;;;;20.30;7.65;;;;;;;-4.74;100.00;98375.25;4468503;32;20177;-77
2022/12/13 03:56:15;;;;;;;13.65;7.07;;;;;;;-4.82;100.00;98366.12;4468337;32;20446;-77
2022/12/13 03:58:42;;;;;;;18.85;8.27;;;;;;;-4.82;100.00;98371.22;4468307;32;20088;-77
2022/12/13 04:01:12;;;;;;;19.45;8.32;;;;;;;-4.78;100.00;98361.75;4469958;32;20154;-77
2022/12/13 04:03:41;;;;;;;21.45;7.55;;;;;;;-4.91;100.00;98368.16;4470410;32;20109;-77
2022/12/13 04:06:09;;;;;;;20.58;7.57;;;;;;;-5.01;100.00;98365.06;4470369;32;20097;-77
2022/12/13 04:08:37;;;;;;;18.62;7.10;;;;;;;-4.97;100.00;98370.91;4474561;32;20088;-77
2022/12/13 04:13:52;;;;;;;15.63;7.35;;;;;;;-5.12;100.00;98369.69;4485951;31;20131;-77
2022/12/13 04:16:20;;;;;;;15.75;6.55;;;;;;;-5.09;100.00;98379.81;4486432;31;20164;-77
2022/12/13 04:18:47;;;;;;;18.52;6.93;;;;;;;-5.09;100.00;98380.63;4485750;32;20525;-77
2022/12/13 04:21:14;;;;;;;13.05;5.22;;;;;;;-5.10;100.00;98378.97;4477996;31;20096;-77
2022/12/13 04:23:42;;;;;;;21.87;7.65;;;;;;;-5.03;100.00;98377.06;4470454;32;20516;-77
2022/12/13 04:26:09;;;;;;;16.30;7.10;;;;;;;-5.00;100.00;98371.84;4470300;32;20097;-77
2022/12/13 04:28:36;;;;;;;19.20;6.80;;;;;;;-5.01;100.00;98367.59;4470333;32;20096;-77
2022/12/13 04:31:04;;;;;;;19.10;7.30;;;;;;;-5.01;100.00;98365.06;4470570;32;20089;-77
2022/12/13 04:33:32;;;;;;;21.10;7.93;;;;;;;-5.06;100.00;98362.66;4470127;32;20085;-77
2022/12/13 04:35:59;;;;;;;16.62;7.65;;;;;;;-5.06;100.00;98366.94;4470110;32;20428;-77
2022/12/13 04:38:27;;;;;;;24.42;8.57;;;;;;;-5.10;100.00;98373.03;4470045;32;20201;-77
2022/12/13 04:41:06;;;;;;;17.73;6.80;;;;;;;-5.16;100.00;98376.63;4470016;32;20228;-77
2022/12/13 04:43:33;;;;;;;19.15;6.50;;;;;;;-5.12;100.00;98373.06;4470184;32;20084;-77
2022/12/13 04:46:00;;;;;;;16.60;7.25;;;;;;;-5.16;100.00;98376.63;4470280;32;20097;-77
2022/12/13 04:48:27;;;;;;;19.10;9.18;;;;;;;-5.20;100.00;98370.75;4470168;32;20123;-77
2022/12/13 04:50:59;;;;;;;17.15;7.43;;;;;;;-5.14;100.00;98368.91;4470071;32;20101;-77
2022/12/13 04:53:28;;;;;;;18.77;6.65;;;;;;;-5.14;100.00;98371.47;4469974;32;20435;-77
2022/12/13 04:55:55;;;;;;;18.40;7.10;;;;;;;-5.14;100.00;98371.47;4470132;32;20156;-77
2022/12/13 04:58:23;;;;;;;16.37;6.62;;;;;;;-5.13;100.00;98373.12;4469901;32;20525;-77
2022/12/13 05:00:50;;;;;;;15.30;7.05;;;;;;;-5.19;100.00;98366.50;4469890;32;20088;-77
2022/12/13 05:03:17;;;;;;;16.52;7.55;;;;;;;-5.19;100.00;98371.63;4469787;32;20105;-77
2022/12/13 05:05:45;;;;;;;19.35;7.95;;;;;;;-5.15;100.00;98373.16;4469826;32;20101;-77
2022/12/13 05:08:12;;;;;;;21.90;8.52;;;;;;;-5.16;100.00;98379.19;4471635;32;20100;-77
2022/12/13 05:10:39;;;;;;;18.48;7.12;;;;;;;-5.14;100.00;98381.69;4485131;31;20096;-78
2022/12/13 05:13:06;;;;;;;14.25;6.72;;;;;;;-5.19;100.00;98377.53;4484895;32;20116;-78
2022/12/13 05:15:34;;;;;;;15.68;5.90;;;;;;;-5.26;100.00;98381.16;4485547;31;20096;-78
2022/12/13 05:18:02;;;;;;;18.42;6.80;;;;;;;-5.30;100.00;98376.22;4483464;31;20118;-77
2022/12/13 05:20:38;;;;;;;16.98;6.43;;;;;;;-5.29;100.00;98385.56;4485343;32;20448;-77
2022/12/13 05:23:05;;;;;;;15.02;6.55;;;;;;;-5.27;100.00;98386.31;4484502;31;20104;-77
2022/12/13 05:25:33;;;;;;;16.50;7.00;;;;;;;-5.30;100.00;98388.97;4485666;31;20131;-77
2022/12/13 05:28:01;;;;;;;16.75;6.93;;;;;;;-5.22;100.00;98387.03;4485436;31;20138;-77
2022/12/13 05:30:48;;;;;;;23.65;7.93;;;;;;;-5.29;100.00;98388.94;4474584;32;20394;-77
2022/12/13 05:33:16;;;;;;;21.83;7.22;;;;;;;-5.25;100.00;98387.97;4483581;32;20097;-77
2022/12/13 05:35:45;;;;;;;18.52;7.35;;;;;;;-5.21;100.00;98399.75;4484666;31;20135;-77
2022/12/13 05:38:13;;;;;;;16.67;7.32;;;;;;;-5.24;100.00;98397.28;4485483;31;20665;-77
2022/12/13 05:40:40;;;;;;;14.87;6.47;;;;;;;-5.30;100.00;98400.00;4485081;31;20108;-77
2022/12/13 05:43:09;;;;;;;13.57;6.07;;;;;;;-5.29;100.00;98391.47;4484599;31;20100;-77
2022/12/13 05:45:48;;;;;;;17.30;6.95;;;;;;;-5.28;100.00;98382.94;4485326;31;20410;-77
2022/12/13 05:48:16;;;;;;;15.75;7.12;;;;;;;-5.29;100.00;98383.81;4484299;31;20092;-77
2022/12/13 05:50:51;;;;;;;14.80;6.62;;;;;;;-5.31;100.00;98385.59;4484825;32;20216;-78
2022/12/13 05:53:39;;;;;;;12.50;7.00;;;;;;;-5.33;100.00;98384.78;4482817;31;20097;-77
2022/12/13 05:56:07;;;;;;;20.77;7.05;;;;;;;-5.39;100.00;98388.38;4485293;31;20153;-78
2022/12/13 05:58:35;;;;;;;14.52;6.43;;;;;;;-5.40;100.00;98391.00;4473390;32;20168;-78
2022/12/13 06:01:05;;;;;;;16.02;7.37;;;;;;;-5.41;100.00;98392.69;4483618;31;20585;-78
2022/12/13 06:03:33;;;;;;;19.73;7.28;;;;;;;-5.44;100.00;98394.50;4484127;31;20121;-78
2022/12/13 06:06:02;;;;;;;17.55;7.80;;;;;;;-5.47;100.00;98397.16;4483762;31;20517;-78
2022/12/13 06:08:30;;;;;;;17.02;7.78;;;;;;;-5.56;100.00;98399.09;4483788;31;20196;-77
2022/12/13 06:10:58;;;;;;;19.25;7.32;;;;;;;-5.59;100.00;98394.06;4483972;31;20543;-77
2022/12/13 06:13:40;;;;;;;18.17;8.10;;;;;;;-5.58;100.00;98398.31;4483758;31;20081;-77
2022/12/13 06:16:11;;;;;;;19.80;8.13;;;;;;;-5.60;100.00;98396.69;4482545;31;20088;-77
2022/12/13 06:18:50;;;;;;;20.95;8.05;;;;;;;-5.55;100.00;98402.50;4481049;32;20083;-76
2022/12/13 06:21:25;;;;;;;22.85;9.05;;;;;;;-5.65;100.00;98396.00;4481853;32;20118;-78
2022/12/13 06:23:52;;;;;;;17.42;7.85;;;;;;;-5.56;100.00;98399.09;4482953;31;20434;-77
2022/12/13 06:26:19;;;;;;;21.87;9.02;;;;;;;-5.49;100.00;98404.84;4482098;32;20119;-77
2022/12/13 06:28:47;;;;;;;19.42;8.20;;;;;;;-5.48;100.00;98403.13;4484645;31;20101;-77
2022/12/13 06:31:14;;;;;;;18.73;8.00;;;;;;;-5.51;100.00;98406.63;4469948;32;20604;-78
2022/12/13 06:33:41;;;;;;;19.55;7.70;;;;;;;-5.49;100.00;98419.34;4484499;31;20096;-76
2022/12/13 06:36:09;;;;;;;25.23;8.50;;;;;;;-5.49;100.00;98415.06;4485038;31;20135;-75
2022/12/13 06:38:36;;;;;;;18.67;7.18;;;;;;;-5.56;100.00;98424.59;4481568;31;20419;-76
2022/12/13 06:41:12;;;;;;;24.12;7.57;;;;;;;-5.49;100.00;98432.13;4477377;32;20140;-77
2022/12/13 06:43:47;;;;;;;17.40;6.80;;;;;;;-5.52;100.00;98431.31;4476365;32;20466;-77
2022/12/13 06:46:15;;;;;;;18.87;8.68;;;;;;;-5.43;100.00;98426.81;4483862;31;20177;-76
2022/12/13 06:48:42;;;;;;;19.33;8.23;;;;;;;-5.41;100.00;98432.72;4484621;31;20088;-77
2022/12/13 06:51:09;;;;;;;17.20;7.07;;;;;;;-5.37;100.00;98432.56;4484008;31;20100;-76
2022/12/13 06:53:38;;;;;;;20.00;7.95;;;;;;;-5.30;100.00;98434.94;4485002;31;20121;-76
2022/12/13 06:56:11;;;;;;;19.87;8.02;;;;;;;-5.21;100.00;98439.75;4483684;31;20168;-77
2022/12/13 06:58:40;;;;;;;21.00;7.57;;;;;;;-5.12;100.00;98442.03;4482757;32;20116;-79
2022/12/13 07:01:09;;;;;;;17.15;7.30;;;;;;;-5.07;100.00;98441.88;4479846;32;20108;-77
2022/12/13 07:03:53;;;;;;;14.93;6.70;;;;;;;-5.04;100.00;98452.84;4477460;32;20782;-75
2022/12/13 07:06:22;;;;;;;18.37;7.35;;;;;;;-4.92;100.00;98451.63;4475837;32;20168;-76
2022/12/13 07:08:54;;;;;;;21.25;7.43;;;;;;;-4.89;100.00;98456.66;4481389;32;20776;-77
2022/12/13 07:11:24;;;;;;;46.47;13.57;;;;;;;-4.90;100.00;98452.41;4481103;31;20492;-76
2022/12/13 07:13:52;;;;;;;63.85;21.17;;;;;;;-4.68;100.00;98455.13;4483736;31;20862;-75
2022/12/13 07:16:20;;;;;;;53.15;21.08;;;;;;;-4.55;100.00;98459.84;4483066;31;20203;-76
2022/12/13 07:18:58;;;;;;;54.15;21.45;;;;;;;-4.45;100.00;98450.97;4478173;31;20097;-75
2022/12/13 07:21:28;;;;;;;43.58;18.62;;;;;;;-4.40;100.00;98455.94;4478762;31;20502;-78
2022/12/13 07:23:56;;;;;;;28.73;11.95;;;;;;;-4.20;100.00;98457.81;4481581;32;20118;-76
2022/12/13 07:26:23;;;;;;;23.65;9.93;;;;;;;-4.21;100.00;98454.44;4468644;32;20160;-77
2022/12/13 07:28:50;;;;;;;22.90;8.55;;;;;;;-4.09;100.00;98455.69;4483557;31;20448;-76
2022/12/13 07:31:23;;;;;;;17.60;6.93;;;;;;;-3.99;100.00;98464.72;4483102;31;20126;-76
2022/12/13 07:33:50;;;;;;;19.50;7.07;;;;;;;-3.91;100.00;98467.00;4476792;31;20155;-75
2022/12/13 07:36:20;;;;;;;17.02;7.47;;;;;;;-3.80;100.00;98469.19;4478651;32;20108;-75
2022/12/13 07:38:51;;;;;;;21.75;8.13;;;;;;;-3.65;100.00;98467.81;4479175;31;20108;-78
2022/12/13 07:41:18;;;;;;;20.65;7.87;;;;;;;-3.61;100.00;98464.25;4483595;31;20088;-74
2022/12/13 07:43:54;;;;;;;16.27;7.85;;;;;;;-3.63;100.00;98469.44;4483987;31;20076;-78
2022/12/13 07:46:22;;;;;;;21.42;7.80;;;;;;;-3.49;100.00;98465.53;4484084;31;20744;-79
2022/12/13 07:49:03;;;;;;;18.17;7.70;;;;;;;-3.42;100.00;98464.44;4480791;32;20128;-76
2022/12/13 07:51:33;;;;;;;16.30;7.07;;;;;;;-3.52;100.00;98458.78;4484018;31;20091;-85
2022/12/13 07:54:02;;;;;;;15.95;7.25;;;;;;;-3.50;100.00;98466.41;4484177;32;20311;-79
2022/12/13 07:56:33;;;;;;;16.92;8.50;;;;;;;-3.36;100.00;98464.19;4483892;31;20088;-82
2022/12/13 07:59:01;;;;;;;15.77;7.20;;;;;;;-3.34;100.00;98464.97;4483841;31;20567;-81
2022/12/13 08:01:33;;;;;;;19.20;6.82;;;;;;;-3.34;100.00;98464.97;4483935;31;20496;-78
2022/12/13 08:04:04;;;;;;;13.93;6.70;;;;;;;-3.11;100.00;98469.19;4480260;32;20165;-77
2022/12/13 08:06:37;;;;;;;16.12;7.07;;;;;;;-3.09;100.00;98459.75;4474478;31;20121;-76
2022/12/13 08:09:05;;;;;;;17.55;6.10;;;;;;;-3.05;100.00;98475.81;4480561;32;20148;-78
2022/12/13 08:11:32;;;;;;;15.57;7.07;;;;;;;-2.96;100.00;98461.81;4479865;31;20594;-74
2022/12/13 08:13:59;;;;;;;17.05;7.95;;;;;;;-2.68;100.00;98470.09;4475967;31;20120;-74
2022/12/13 08:16:28;;;;;;;12.15;5.72;;;;;;;-2.53;100.00;98467.78;4473583;32;20108;-74
2022/12/13 08:18:57;;;;;;;15.43;7.68;;;;;;;-2.37;100.00;98470.56;4474279;32;20149;-76
2022/12/13 08:21:35;;;;;;;15.45;6.75;;;;;;;-2.17;100.00;98477.41;4472772;32;20148;-78
2022/12/13 08:24:26;;;;;;;11.68;6.28;;;;;;;-2.09;100.00;98477.09;4474945;32;20111;-76
2022/12/13 08:27:01;;;;;;;21.50;6.68;;;;;;;-2.07;100.00;98470.19;4474987;32;20594;-76
2022/12/13 08:29:33;;;;;;;12.23;7.03;;;;;;;-1.88;100.00;98475.34;4471750;32;20549;-76
2022/12/13 08:32:05;;;;;;;17.45;7.05;;;;;;;-1.92;100.00;98478.94;4473325;32;20146;-77
2022/12/13 08:34:32;;;;;;;12.77;6.45;;;;;;;-1.76;100.00;98472.25;4474597;32;20088;-77
2022/12/13 08:36:59;;;;;;;14.87;5.85;;;;;;;-1.70;100.00;98471.97;4473231;32;20104;-74
2022/12/13 08:39:33;;;;;;;12.30;6.37;;;;;;;-1.49;100.00;98466.78;4476190;32;20159;-73
2022/12/13 08:42:15;;;;;;;13.52;6.30;;;;;;;-1.68;100.00;98470.19;4465806;31;20089;-75
2022/12/13 08:44:49;;;;;;;;;;;;;;;-1.56;100.00;98473.09;4474194;31;20092;-76
2022/12/13 08:47:19;;;;;;;13.38;5.30;;;;;;;-1.54;100.00;98464.44;4481314;32;19992;-74
2022/12/13 08:49:57;;;;;;;13.32;5.97;;;;;;;-1.54;100.00;98472.12;4483536;31;20603;-74
2022/12/13 08:52:30;;;;;;;17.12;6.40;;;;;;;-1.57;100.00;98474.00;4483049;32;20514;-77
2022/12/13 08:55:08;;;;;;;12.85;5.53;;;;;;;-1.25;100.00;98470.81;4482468;31;20153;-76
2022/12/13 08:57:37;;;;;;;12.27;4.85;;;;;;;-1.35;100.00;98476.44;4479817;31;20097;-76
2022/12/13 09:00:05;;;;;;;10.05;4.53;;;;;;;-1.21;100.00;98491.22;4483130;31;20125;-76
2022/12/13 09:02:32;;;;;;;12.07;5.32;;;;;;;-1.13;100.00;98487.41;4482679;31;20126;-78
2022/12/13 09:05:06;;;;;;;12.05;5.90;;;;;;;-1.08;100.00;98482.03;4482780;31;20108;-79
2022/12/13 09:07:35;;;;;;;12.82;5.90;;;;;;;-0.94;100.00;98469.41;4482505;32;20101;-78
2022/12/13 09:10:03;;;;;;;13.32;6.20;;;;;;;-0.77;100.00;98480.62;4482066;31;20099;-77
2022/12/13 09:12:53;;;;;;;10.57;5.03;;;;;;;-0.68;100.00;98480.19;4481613;32;20101;-79
2022/12/13 09:15:29;;;;;;;12.35;5.93;;;;;;;-0.75;100.00;98474.47;4481923;31;20119;-78
2022/12/13 09:18:01;;;;;;;9.38;4.40;;;;;;;-0.70;100.00;98478.56;4482258;32;20152;-81
2022/12/13 09:20:34;;;;;;;12.23;4.50;;;;;;;-0.90;100.00;98473.47;4482342;31;20143;-79
2022/12/13 09:23:09;;;;;;;9.55;4.18;;;;;;;-0.74;100.00;98483.87;4482013;32;20826;-78
2022/12/13 09:25:57;;;;;;;16.42;6.68;;;;;;;-0.39;100.00;98486.47;4482386;32;20704;-77
2022/12/13 09:28:34;;;;;;;11.80;6.03;;;;;;;-0.40;100.00;98479.66;4482058;32;20891;-78
2022/12/13 09:31:12;;;;;;;16.08;6.62;;;;;;;-0.57;100.00;98477.91;4479496;32;20099;-78
2022/12/13 09:33:40;;;;;;;13.62;6.60;;;;;;;-0.57;100.00;98480.47;4476810;32;20188;-77
2022/12/13 09:36:11;;;;;;;16.45;7.00;;;;;;;-0.51;100.00;98475.97;4479783;32;20139;-79
2022/12/13 09:38:39;;;;;;;17.77;6.65;;;;;;;-0.44;100.00;98475.59;4481384;32;20484;-79
2022/12/13 09:41:20;;;;;;;17.70;7.32;;;;;;;-0.54;100.00;98474.38;4484813;31;20218;-83
2022/12/13 09:44:06;;;;;;;14.23;6.93;;;;;;;-0.48;100.00;98475.81;4484162;31;20153;-79
2022/12/13 09:46:54;;;;;;;12.15;5.72;;;;;;;-0.37;100.00;98468.37;4482375;32;20093;-76
2022/12/13 09:49:43;;;;;;;11.18;6.18;;;;;;;-0.20;100.00;98460.66;4485135;31;20142;-77
2022/12/13 09:52:21;;;;;;;15.55;5.47;;;;;;;-0.06;100.00;98464.25;4482038;31;20458;-78
2022/12/13 09:54:52;;;;;;;14.63;6.05;;;;;;;-0.22;100.00;98461.63;4483769;32;20192;-75
2022/12/13 09:57:26;;;;;;;11.60;5.37;;;;;;;-0.28;98.63;98465.34;4483727;31;20442;-79
2022/12/13 10:00:05;;;;;;;13.88;5.80;;;;;;;-0.29;98.64;98461.09;4480056;32;20218;-79
2022/12/13 10:02:45;;;;;;;9.77;5.00;;;;;;;-0.40;98.80;98461.63;4480484;31;20092;-78
2022/12/13 10:05:20;;;;;;;12.43;6.35;;;;;;;-0.25;99.58;98460.03;4480588;32;20104;-79
2022/12/13 10:08:04;;;;;;;16.40;6.30;;;;;;;-0.30;99.33;98462.03;4470442;32;20187;-80
2022/12/13 10:10:32;;;;;;;12.77;5.22;;;;;;;-0.49;97.08;98450.97;4482953;31;20133;-79
2022/12/13 10:13:15;;;;;;;10.55;5.22;;;;;;;-0.26;96.72;98457.56;4479129;31;20145;-80
2022/12/13 10:15:50;;;;;;;17.37;5.35;;;;;;;-0.11;95.63;98451.63;4478592;32;20096;-79
2022/12/13 10:18:26;;;;;;;10.90;5.30;;;;;;;-0.08;96.14;98448.88;4479595;32;20445;-79
2022/12/13 10:20:54;;;;;;;10.85;4.28;;;;;;;-0.02;94.10;98445.19;4483571;32;20115;-79
2022/12/13 10:23:21;;;;;;;12.40;5.22;;;;;;;0.09;94.59;98453.19;4482683;31;20429;-80
2022/12/13 10:26:11;;;;;;;9.48;4.85;;;;;;;-0.07;94.89;98452.31;4478289;31;20119;-79
2022/12/13 10:28:50;;;;;;;12.13;5.80;;;;;;;-0.06;93.09;98452.25;4482179;32;21371;-80
2022/12/13 10:31:19;;;;;;;11.35;5.55;;;;;;;-0.01;93.74;98454.56;4483021;32;20123;-80
2022/12/13 10:33:54;;;;;;;10.93;5.03;;;;;;;-0.02;94.31;98442.59;4482501;31;20088;-80
2022/12/13 10:36:29;;;;;;;6.93;3.53;;;;;;;-0.04;93.32;98445.25;4482096;31;20904;-80
2022/12/13 10:38:56;;;;;;;8.90;3.20;;;;;;;-0.01;91.53;98446.84;4483293;32;20135;-79
2022/12/13 10:41:25;;;;;;;8.50;4.45;;;;;;;0.04;90.17;98439.72;4482711;32;20445;-79
2022/12/13 10:44:16;;;;;;;7.90;4.03;;;;;;;-0.02;91.28;98435.69;4479645;31;20097;-78
2022/12/13 10:47:02;;;;;;;8.35;3.55;;;;;;;-0.09;88.64;98436.94;4474455;32;20127;-76
2022/12/13 10:49:45;;;;;;;8.55;3.40;;;;;;;-0.05;90.60;98432.47;4475746;32;20095;-79
2022/12/13 10:52:38;;;;;;;6.82;3.00;;;;;;;0.12;90.00;98427.28;4482134;32;20112;-76
2022/12/13 10:55:31;;;;;;;7.12;3.42;;;;;;;0.14;86.15;98434.94;4484529;31;20096;-77
2022/12/13 10:58:06;;;;;;;7.50;3.17;;;;;;;0.03;87.88;98437.22;4478222;32;20161;-78
2022/12/13 11:00:43;;;;;;;4.90;3.22;;;;;;;0.05;89.82;98430.25;4483317;31;20126;-78
2022/12/13 11:03:26;;;;;;;4.03;2.00;;;;;;;0.32;91.04;98427.97;4482772;32;20140;-76
2022/12/13 11:06:11;;;;;;;5.07;2.58;;;;;;;0.43;83.57;98422.25;4481681;32;20092;-77
2022/12/13 11:08:39;;;;;;;5.78;2.72;;;;;;;0.23;81.84;98429.28;4473192;32;20104;-76
2022/12/13 11:11:07;;;;;;;5.03;2.20;;;;;;;0.16;83.31;98422.78;4466717;32;20118;-78
2022/12/13 11:13:37;;;;;;;5.30;2.85;;;;;;;0.27;81.91;98414.50;4474128;32;20108;-72
2022/12/13 11:16:28;;;;;;;7.97;2.90;;;;;;;0.17;84.22;98414.16;4476580;31;20236;-76
2022/12/13 11:19:02;;;;;;;8.52;3.12;;;;;;;0.33;84.08;98409.88;4482809;32;20084;-77
2022/12/13 11:21:31;;;;;;;;;;;;;;;0.22;83.30;98407.00;4474777;32;20085;-75
2022/12/13 11:24:01;;;;;;;6.87;3.28;;;;;;;0.14;82.38;98409.19;4474388;32;20043;-75
2022/12/13 11:26:30;;;;;;;8.45;3.08;;;;;;;0.16;83.83;98403.00;4484165;31;20119;-72
2022/12/13 11:29:27;;;;;;;7.87;3.42;;;;;;;0.25;84.15;98404.28;4480009;32;20495;-76
2022/12/13 11:31:57;;;;;;;9.07;3.58;;;;;;;0.36;84.40;98398.53;4478161;32;20446;-77
2022/12/13 11:35:02;;;;;;;9.90;3.83;;;;;;;0.61;84.52;98410.13;4479528;31;20151;-77
2022/12/13 11:37:38;;;;;;;10.35;3.92;;;;;;;0.70;85.61;98399.31;4462129;32;20143;-76
2022/12/13 11:40:15;;;;;;;10.38;4.40;;;;;;;0.66;86.59;98405.53;4464545;32;20210;-75
2022/12/13 11:43:07;;;;;;;12.05;3.87;;;;;;;0.56;83.72;98402.66;4451833;32;20413;-75
2022/12/13 11:45:40;;;;;;;12.02;4.30;;;;;;;0.41;83.85;98400.87;4403444;32;20164;-75
2022/12/13 11:48:07;;;;;;;9.65;4.40;;;;;;;0.37;86.76;98399.41;4402846;32;20184;-73
2022/12/13 11:50:41;;;;;;;9.55;4.50;;;;;;;0.50;86.89;98395.22;4401919;32;20094;-72
2022/12/13 11:53:21;;;;;;;10.70;5.20;;;;;;;0.42;85.57;98400.78;4389224;32;20136;-73